• Join FlightAware (Why Join?)
  • Login
  • US Flag 
04:01AM EST


 

Airport Tracker/Info


-or-


 

Live Flight TrackerFlight Track Log ✈ RBY710 ✈ 07-Jun-2014 ✈ KPIE - KGPT

Flight Track Log - Related Links

Times and Time Zones

All times are in EDT time to prevent confusion due to time zone crossing. See the RBY710 flight status page for this flight to view local times or setup timezone preferences in your user account.

Time Position Orientation Groundspeed Altitude Reporting Facility
EDT Latitude Longitude Course Direction KTS MPH feet Rate Location/Type
01:07PM 27.9333 -82.6833 248° West 154 177 900  Level Tampa TRACON
01:09PM 28.0258 -82.7219 340° North 246 283 6,100 2,400 Climbing Miami Center
01:10PM 27.9756 -82.8036 235° Southwest 267 307 9,300 2,760 Climbing Miami Center
01:11PM 27.9233 -82.8725 229° Southwest 283 326 11,900 1,860 Climbing Miami Center
01:12PM 27.8132 -82.9428 248° West  Level FlightAware Approximate
01:12PM 27.8758 -82.9578 238° Southwest 344 396 13,200  Level Miami Center
01:14PM 27.8786 -83.0669 272° West 347 399 15,800 2,220 Climbing Miami Center
01:15PM 27.8778 -83.1803 270° West 357 411 17,900 1,980 Climbing Miami Center
01:16PM 27.8814 -83.2989 272° West 376 433 20,000 2,040 Climbing Miami Center
01:17PM 27.8817 -83.4458 270° West 390 449 22,200 1,680 Climbing Miami Center
01:18PM 27.8800 -83.5747 269° West 409 471 23,500 1,380 Climbing Miami Center
01:19PM 27.8808 -83.7108 270° West 430 495 25,100 1,440 Climbing Miami Center
01:20PM 27.8822 -83.8472 271° West 432 497 26,600 1,200 Climbing Miami Center
01:21PM 27.8819 -83.9867 270° West 440 506 27,700 1,200 Climbing Miami Center
01:22PM 27.8833 -84.1589 271° West 454 522 29,200 1,440 Climbing Miami Center
01:23PM 27.8814 -84.3031 269° West 457 526 30,700 1,320 Climbing Miami Center
01:24PM 27.8828 -84.4450 271° West 456 525 32,000 540 Climbing Miami Center
01:25PM 27.8833 -84.5853 270° West 450 518 31,900  Descending Miami Center
01:26PM 27.8864 -84.7258 271° West 450 518 32,000  Climbing Miami Center
01:27PM 27.8864 -84.8939 270° West 449 517 32,000  Level Miami Center
01:28PM 27.8872 -85.0167 270° West 449 517 32,000  Level Miami Center
01:29PM 27.8858 -85.1869 270° West 449 517 32,000 -120 Level Miami Center
01:30PM 27.8872 -85.2492 271° West 449 517 31,900  Descending Houston Center
01:30PM 27.9153 -85.3703 285° West 449 517 32,000  Climbing Jacksonville Center
01:31PM 27.9586 -85.5100 289° West 453 521 32,000  Level Jacksonville Center
01:32PM 27.9997 -85.6403 290° West 458 527 32,000  Level Jacksonville Center
01:33PM 28.0425 -85.7731 290° West 458 527 32,000  Level Jacksonville Center
01:34PM 28.0814 -85.9033 289° West 457 526 32,000 -60 Level Jacksonville Center
01:35PM 28.1217 -86.0458 288° West 457 526 31,900  Descending Jacksonville Center
01:36PM 28.1622 -86.1742 290° West 451 519 32,000  Climbing Jacksonville Center
01:37PM 28.2006 -86.3097 288° West 451 519 32,000  Level Jacksonville Center
01:38PM 28.2389 -86.4358 289° West 440 506 32,000 -60 Level Jacksonville Center
01:39PM 28.2828 -86.5833 289° West 453 521 31,900 -60 Descending Jacksonville Center
01:40PM 28.3186 -86.7072 288° West 447 514 31,900  Level Jacksonville Center
01:41PM 28.3842 -86.8231 303° West 441 507 32,000  Climbing Jacksonville Center
01:42PM 28.4731 -86.9139 318° Northwest 440 506 32,000  Level Jacksonville Center
01:43PM 28.5617 -87.0144 315° West 435 501 32,000  Level Jacksonville Center
01:44PM 28.6525 -87.1081 318° Northwest 430 495 32,000 -60 Level Jacksonville Center
01:45PM 28.7003 -87.1606 316° Northwest 440 506 31,900  Descending Houston Center
01:46PM 28.8064 -87.2758 316° Northwest 440 506 32,000  Climbing Houston Center
01:47PM 28.8950 -87.3719 316° Northwest 440 506 32,000  Level Houston Center
01:48PM 28.9844 -87.4706 317° Northwest 440 506 32,000  Level Houston Center
01:49PM 28.9770 -87.4599 317° Northwest  Level FlightAware Approximate
01:49PM 29.0719 -87.5669 316° Northwest 442 509 32,000  Level Houston Center
01:50PM 29.1614 -87.6653 316° Northwest 443 510 32,000  Level Houston Center
01:51PM 29.2506 -87.7642 316° Northwest 444 511 32,000 -960 Level Houston Center
01:52PM 29.3539 -87.8781 316° Northwest 445 512 30,100 -2,400 Descending Houston Center
01:53PM 29.4461 -87.9794 316° Northwest 442 509 27,100 -3,360 Descending Houston Center
01:54PM 29.5336 -88.0775 316° Northwest 441 507 23,200 -3,180 Descending Houston Center
01:55PM 29.6206 -88.1750 316° Northwest 440 506 20,500 -2,340 Descending Houston Center
01:56PM 29.6986 -88.2622 316° Northwest 398 458 18,400 -1,860 Descending Houston Center
01:58PM 29.7836 -88.3603 315° West 384 442 16,700 -1,920 Descending Houston Center
01:59PM 29.8569 -88.4400 317° Northwest 368 423 14,500 -2,220 Descending Houston Center
02:00PM 29.9294 -88.5244 315° West 351 404 12,200 -1,740 Descending Houston Center
02:01PM 29.9961 -88.5992 316° Northwest 338 389 11,000 -660 Descending Houston Center
02:02PM 30.0478 -88.6567 316° Northwest 286 329 10,900  Descending Houston Center
02:02PM 30.0933 -88.7100 315° West 279 321 11,000  Climbing Houston Center
02:03PM 30.1028 -88.7211 314° West 280 322 10,900 -1,860 Descending Houston Center
02:04PM 30.1803 -88.7856 324° Northwest 284 327 8,500 -1,560 Descending Houston Center
02:05PM 30.2369 -88.8347 323° Northwest 289 333 7,700 -1,260 Descending Houston Center
02:06PM 30.3081 -88.8928 325° Northwest 268 308 5,900 -1,680 Descending Houston Center
02:06PM 30.3425 -88.9183 327° Northwest 259 298 5,100 -1,500 Descending Houston Center
02:07PM 30.3672 -88.9389 324° Northwest 262 302 4,400 -1,200 Descending Houston Center
02:08PM 30.4200 -88.9819 325° Northwest 261 300 3,300 -1,320 Descending Houston Center
02:09PM 30.4603 -89.0472 306° West 220 253 1,700 -1,020 Descending Houston Center
02:10PM 30.4686 -89.0972 281° West 177 204 1,200 -600 Descending Houston Center
02:11PM 30.4381 -89.1072 196° South 143 165 600 -600 Descending Houston Center
02:11PM 30.4278 -89.1067 177° South 157 181 600  Level Houston Center
02:13PM 30.4000 -89.0667 168° South  Level FlightAware Approximate